^^
Station Historical Data
Daily Summary for November 13, 2017 Units:  Both    English   Metric
« Previous Day
Next Day »
Daily Weekly Monthly Yearly Custom
  High: Low: Average:
Temperature: TemperatureF °F /  -17.8 °C 60.6 °F /  15.9 °C 74.6 °F /  23.7 °C
Dew Point: DewpointF °F /  -17.8 °C 35.6 °F /  2 °C 43.6 °F /  6.4 °C
Humidity: Humidity% 17% 35%
Wind Speed: WindSpeedMPHmph /  0km/h - 2mph /  3.2km/h
Wind Gust: WindSpeedGustMPHmph /  0km/h - -
Wind- - SW
Pressure: PressureIn in /  0 hPa 29.57 in /  1001.2 hPa -
Precipitation: 0.00 in /  0 mm    
Historical Graphs
 
 
Tabular Data for November 13, 2017
Time Temperature Dew Point Pressure Wind Wind Speed Wind Gust Humidity Rainfall Rate (Hourly) solar Conditions
TemperatureF °F /  -17.8 °C DewpointF °F /  -17.8 °C PressureInin /  0hPa Calm     Humidity% HourlyPrecipInin /  0mm SolarRadiationWatts/m^2 W/m2 Conditions
00:00 72.3 °F /  22.4 °C 42.4 °F /  5.8 °C 29.74in /  1007hPa Calm   3.0mph /  4.8km/h 34% 0.00in /  0mm 0.0 W/m2
00:05 72.3 °F /  22.4 °C 42.4 °F /  5.8 °C 29.74in /  1007hPa NE 2.9mph /  4.7km/h 4.0mph /  6.4km/h 34% 0.00in /  0mm 0.0 W/m2
00:11 72.1 °F /  22.3 °C 43.0 °F /  6.1 °C 29.74in /  1007hPa ENE 2.0mph /  3.2km/h 3.0mph /  4.8km/h 35% 0.00in /  0mm 0.0 W/m2
00:17 72.0 °F /  22.2 °C 43.5 °F /  6.4 °C 29.74in /  1007hPa Calm   1.0mph /  1.6km/h 36% 0.00in /  0mm 0.0 W/m2
00:22 71.8 °F /  22.1 °C 43.3 °F /  6.3 °C 29.74in /  1007hPa Calm     36% 0.00in /  0mm 0.0 W/m2
00:27 71.4 °F /  21.9 °C 43.2 °F /  6.2 °C 29.74in /  1007hPa Calm     36% 0.00in /  0mm 0.0 W/m2
00:32 71.4 °F /  21.9 °C 43.7 °F /  6.5 °C 29.74in /  1007hPa Calm     37% 0.00in /  0mm 0.0 W/m2
00:37 71.2 °F /  21.8 °C 43.0 °F /  6.1 °C 29.74in /  1007hPa Calm     36% 0.00in /  0mm 0.0 W/m2
00:42 71.1 °F /  21.7 °C 42.8 °F /  6 °C 29.74in /  1007hPa Calm     36% 0.00in /  0mm 0.0 W/m2
00:47 71.1 °F /  21.7 °C 42.1 °F /  5.6 °C 29.74in /  1007hPa Calm   2.0mph /  3.2km/h 35% 0.00in /  0mm 0.0 W/m2
00:52 71.1 °F /  21.7 °C 41.4 °F /  5.2 °C 29.73in /  1006.7hPa NNW 2.0mph /  3.2km/h 4.0mph /  6.4km/h 34% 0.00in /  0mm 0.0 W/m2
00:57 70.9 °F /  21.6 °C 39.6 °F /  4.2 °C 29.74in /  1007hPa Calm   2.0mph /  3.2km/h 32% 0.00in /  0mm 0.0 W/m2
01:02 70.9 °F /  21.6 °C 38.7 °F /  3.7 °C 29.73in /  1006.7hPa Calm   1.0mph /  1.6km/h 31% 0.00in /  0mm 0.0 W/m2
01:07 70.5 °F /  21.4 °C 38.5 °F /  3.6 °C 29.73in /  1006.7hPa Calm   2.0mph /  3.2km/h 31% 0.00in /  0mm 0.0 W/m2
01:13 70.5 °F /  21.4 °C 38.5 °F /  3.6 °C 29.73in /  1006.7hPa NNE 2.0mph /  3.2km/h 2.0mph /  3.2km/h 31% 0.00in /  0mm 0.0 W/m2
01:18 70.3 °F /  21.3 °C 38.3 °F /  3.5 °C 29.72in /  1006.3hPa Calm   2.0mph /  3.2km/h 31% 0.00in /  0mm 0.0 W/m2
01:23 70.0 °F /  21.1 °C 37.9 °F /  3.3 °C 29.72in /  1006.3hPa Calm   3.0mph /  4.8km/h 31% 0.00in /  0mm 0.0 W/m2
01:28 69.6 °F /  20.9 °C 38.5 °F /  3.6 °C 29.72in /  1006.3hPa Calm   1.0mph /  1.6km/h 32% 0.00in /  0mm 0.0 W/m2
01:33 69.6 °F /  20.9 °C 38.5 °F /  3.6 °C 29.72in /  1006.3hPa Calm     32% 0.00in /  0mm 0.0 W/m2
01:38 69.3 °F /  20.7 °C 38.1 °F /  3.4 °C 29.72in /  1006.3hPa Calm   1.0mph /  1.6km/h 32% 0.00in /  0mm 0.0 W/m2
01:44 69.1 °F /  20.6 °C 38.8 °F /  3.8 °C 29.72in /  1006.3hPa Calm     33% 0.00in /  0mm 0.0 W/m2
01:49 68.7 °F /  20.4 °C 39.2 °F /  4 °C 29.72in /  1006.3hPa NE 0.9mph /  1.4km/h 1.0mph /  1.6km/h 34% 0.00in /  0mm 0.0 W/m2
01:54 68.5 °F /  20.3 °C 39.0 °F /  3.9 °C 29.72in /  1006.3hPa Calm   2.0mph /  3.2km/h 34% 0.00in /  0mm 0.0 W/m2
02:05 68.0 °F /  20 °C 38.7 °F /  3.7 °C 29.72in /  1006.3hPa NNE 0.9mph /  1.4km/h 7.0mph /  11.3km/h 34% 0.00in /  0mm 0.0 W/m2
02:10 67.6 °F /  19.8 °C 39.0 °F /  3.9 °C 29.71in /  1006hPa Calm   1.0mph /  1.6km/h 35% 0.00in /  0mm 0.0 W/m2
02:15 67.5 °F /  19.7 °C 38.8 °F /  3.8 °C 29.72in /  1006.3hPa Calm   1.0mph /  1.6km/h 35% 0.00in /  0mm 0.0 W/m2
02:20 67.3 °F /  19.6 °C 38.7 °F /  3.7 °C 29.71in /  1006hPa Calm   1.0mph /  1.6km/h 35% 0.00in /  0mm 0.0 W/m2
02:25 66.9 °F /  19.4 °C 39.0 °F /  3.9 °C 29.71in /  1006hPa Calm     36% 0.00in /  0mm 0.0 W/m2
02:30 66.7 °F /  19.3 °C 39.0 °F /  3.9 °C 29.71in /  1006hPa Calm     36% 0.00in /  0mm 0.0 W/m2
02:35 66.6 °F /  19.2 °C 39.6 °F /  4.2 °C 29.71in /  1006hPa Calm     37% 0.00in /  0mm 0.0 W/m2
02:41 66.4 °F /  19.1 °C 39.4 °F /  4.1 °C 29.71in /  1006hPa Calm   3.0mph /  4.8km/h 37% 0.00in /  0mm 0.0 W/m2
02:47 65.8 °F /  18.8 °C 39.6 °F /  4.2 °C 29.70in /  1005.6hPa Calm   1.0mph /  1.6km/h 38% 0.00in /  0mm 0.0 W/m2
02:52 65.7 °F /  18.7 °C 40.1 °F /  4.5 °C 29.71in /  1006hPa Calm     39% 0.00in /  0mm 0.0 W/m2
02:57 65.1 °F /  18.4 °C 40.3 °F /  4.6 °C 29.71in /  1006hPa Calm   1.0mph /  1.6km/h 40% 0.00in /  0mm 0.0 W/m2
03:02 64.9 °F /  18.3 °C 40.6 °F /  4.8 °C 29.70in /  1005.6hPa Calm     41% 0.00in /  0mm 0.0 W/m2
03:07 64.8 °F /  18.2 °C 40.5 °F /  4.7 °C 29.70in /  1005.6hPa Calm     41% 0.00in /  0mm 0.0 W/m2
03:12 64.2 °F /  17.9 °C 40.6 °F /  4.8 °C 29.70in /  1005.6hPa Calm     42% 0.00in /  0mm 0.0 W/m2
03:17 64.0 °F /  17.8 °C 40.5 °F /  4.7 °C 29.70in /  1005.6hPa Calm     42% 0.00in /  0mm 0.0 W/m2
03:22 63.9 °F /  17.7 °C 40.3 °F /  4.6 °C 29.70in /  1005.6hPa Calm     42% 0.00in /  0mm 0.0 W/m2
03:28 63.7 °F /  17.6 °C 40.1 °F /  4.5 °C 29.70in /  1005.6hPa Calm   1.0mph /  1.6km/h 42% 0.00in /  0mm 0.0 W/m2
03:33 63.3 °F /  17.4 °C 40.5 °F /  4.7 °C 29.70in /  1005.6hPa SSE 0.9mph /  1.4km/h 2.0mph /  3.2km/h 43% 0.00in /  0mm 0.0 W/m2
03:38 63.1 °F /  17.3 °C 40.3 °F /  4.6 °C 29.70in /  1005.6hPa SE 0.9mph /  1.4km/h 1.0mph /  1.6km/h 43% 0.00in /  0mm 0.0 W/m2
03:43 63.0 °F /  17.2 °C 40.1 °F /  4.5 °C 29.70in /  1005.6hPa Calm   2.0mph /  3.2km/h 43% 0.00in /  0mm 0.0 W/m2
03:48 63.0 °F /  17.2 °C 40.1 °F /  4.5 °C 29.70in /  1005.6hPa Calm     43% 0.00in /  0mm 0.0 W/m2
03:53 62.8 °F /  17.1 °C 39.9 °F /  4.4 °C 29.70in /  1005.6hPa SSE 5.0mph /  8km/h 5.0mph /  8km/h 43% 0.00in /  0mm 0.0 W/m2
03:58 62.4 °F /  16.9 °C 39.6 °F /  4.2 °C 29.70in /  1005.6hPa Calm   3.0mph /  4.8km/h 43% 0.00in /  0mm 0.0 W/m2
04:03 62.4 °F /  16.9 °C 39.6 °F /  4.2 °C 29.70in /  1005.6hPa Calm   2.0mph /  3.2km/h 43% 0.00in /  0mm 0.0 W/m2
04:09 62.4 °F /  16.9 °C 39.6 °F /  4.2 °C 29.70in /  1005.6hPa Calm     43% 0.00in /  0mm 0.0 W/m2
04:14 62.2 °F /  16.8 °C 40.1 °F /  4.5 °C 29.70in /  1005.6hPa Calm     44% 0.00in /  0mm 0.0 W/m2
04:19 62.1 °F /  16.7 °C 39.9 °F /  4.4 °C 29.70in /  1005.6hPa Calm     44% 0.00in /  0mm 0.0 W/m2
04:24 61.9 °F /  16.6 °C 40.3 °F /  4.6 °C 29.70in /  1005.6hPa Calm     45% 0.00in /  0mm 0.0 W/m2
04:29 61.7 °F /  16.5 °C 40.1 °F /  4.5 °C 29.70in /  1005.6hPa Calm   1.0mph /  1.6km/h 45% 0.00in /  0mm 0.0 W/m2
04:34 61.5 °F /  16.4 °C 39.9 °F /  4.4 °C 29.70in /  1005.6hPa ENE 0.9mph /  1.4km/h 3.0mph /  4.8km/h 45% 0.00in /  0mm 0.0 W/m2
04:39 61.3 °F /  16.3 °C 41.0 °F /  5 °C 29.70in /  1005.6hPa NE 0.9mph /  1.4km/h 4.0mph /  6.4km/h 47% 0.00in /  0mm 0.0 W/m2
04:45 61.2 °F /  16.2 °C 41.9 °F /  5.5 °C 29.70in /  1005.6hPa Calm   3.0mph /  4.8km/h 49% 0.00in /  0mm 0.0 W/m2
04:50 61.2 °F /  16.2 °C 42.4 °F /  5.8 °C 29.70in /  1005.6hPa SE 2.9mph /  4.7km/h 4.0mph /  6.4km/h 50% 0.00in /  0mm 0.0 W/m2
04:55 61.2 °F /  16.2 °C 43.0 °F /  6.1 °C 29.70in /  1005.6hPa Calm   3.0mph /  4.8km/h 51% 0.00in /  0mm 0.0 W/m2
05:00 61.0 °F /  16.1 °C 42.8 °F /  6 °C 29.70in /  1005.6hPa Calm   1.0mph /  1.6km/h 51% 0.00in /  0mm 0.0 W/m2
05:05 61.0 °F /  16.1 °C 42.8 °F /  6 °C 29.70in /  1005.6hPa Calm   1.0mph /  1.6km/h 51% 0.00in /  0mm 0.0 W/m2
05:16 60.6 °F /  15.9 °C 41.9 °F /  5.5 °C 29.70in /  1005.6hPa Calm     50% 0.00in /  0mm 0.0 W/m2
05:21 60.6 °F /  15.9 °C 41.9 °F /  5.5 °C 29.70in /  1005.6hPa SE 2.0mph /  3.2km/h 3.0mph /  4.8km/h 50% 0.00in /  0mm 0.0 W/m2
05:23 60.6 °F /  15.9 °C 41.9 °F /  5.5 °C 29.70in /  1005.6hPa Calm   2.0mph /  3.2km/h 50% 0.00in /  0mm 0.0 W/m2
05:24 60.6 °F /  15.9 °C 41.9 °F /  5.5 °C 29.70in /  1005.6hPa Calm   1.0mph /  1.6km/h 50% 0.00in /  0mm 0.0 W/m2
05:28 60.6 °F /  15.9 °C 41.9 °F /  5.5 °C 29.70in /  1005.6hPa Calm   1.0mph /  1.6km/h 50% 0.00in /  0mm 0.0 W/m2
05:33 60.6 °F /  15.9 °C 41.9 °F /  5.5 °C 29.70in /  1005.6hPa Calm     50% 0.00in /  0mm 0.0 W/m2
05:38 60.6 °F /  15.9 °C 41.9 °F /  5.5 °C 29.70in /  1005.6hPa Calm     50% 0.00in /  0mm 0.0 W/m2
05:43 60.6 °F /  15.9 °C 41.4 °F /  5.2 °C 29.70in /  1005.6hPa Calm     49% 0.00in /  0mm 0.0 W/m2
05:48 60.6 °F /  15.9 °C 41.4 °F /  5.2 °C 29.70in /  1005.6hPa Calm     49% 0.00in /  0mm 0.0 W/m2
05:53 60.6 °F /  15.9 °C 41.4 °F /  5.2 °C 29.70in /  1005.6hPa Calm     49% 0.00in /  0mm 0.0 W/m2
05:58 60.8 °F /  16 °C 41.5 °F /  5.3 °C 29.70in /  1005.6hPa Calm     49% 0.00in /  0mm 0.0 W/m2
05:59 60.8 °F /  16 °C 41.5 °F /  5.3 °C 29.70in /  1005.6hPa Calm     49% 0.00in /  0mm 0.0 W/m2
06:04 61.0 °F /  16.1 °C 41.2 °F /  5.1 °C 29.70in /  1005.6hPa Calm     48% 0.00in /  0mm 0.0 W/m2
06:10 61.0 °F /  16.1 °C 40.6 °F /  4.8 °C 29.70in /  1005.6hPa Calm     47% 0.00in /  0mm 5.0 W/m2
06:15 61.2 °F /  16.2 °C 41.4 °F /  5.2 °C 29.70in /  1005.6hPa Calm     48% 0.00in /  0mm 9.0 W/m2
06:20 61.2 °F /  16.2 °C 41.4 °F /  5.2 °C 29.70in /  1005.6hPa Calm   1.0mph /  1.6km/h 48% 0.00in /  0mm 12.0 W/m2
06:25 61.3 °F /  16.3 °C 41.0 °F /  5 °C 29.70in /  1005.6hPa Calm   1.0mph /  1.6km/h 47% 0.00in /  0mm 19.0 W/m2
06:30 61.7 °F /  16.5 °C 40.6 °F /  4.8 °C 29.70in /  1005.6hPa Calm     46% 0.00in /  0mm 23.0 W/m2
06:35 61.9 °F /  16.6 °C 41.4 °F /  5.2 °C 29.70in /  1005.6hPa ENE 0.9mph /  1.4km/h 3.0mph /  4.8km/h 47% 0.00in /  0mm 30.0 W/m2
06:40 62.2 °F /  16.8 °C 41.2 °F /  5.1 °C 29.70in /  1005.6hPa Calm   1.0mph /  1.6km/h 46% 0.00in /  0mm 40.0 W/m2
06:45 62.4 °F /  16.9 °C 41.9 °F /  5.5 °C 29.70in /  1005.6hPa ENE 4.0mph /  6.4km/h 4.0mph /  6.4km/h 47% 0.00in /  0mm 60.0 W/m2
06:51 62.8 °F /  17.1 °C 41.2 °F /  5.1 °C 29.70in /  1005.6hPa Calm   2.0mph /  3.2km/h 45% 0.00in /  0mm 70.0 W/m2
06:56 63.0 °F /  17.2 °C 41.4 °F /  5.2 °C 29.70in /  1005.6hPa NE 0.9mph /  1.4km/h 2.0mph /  3.2km/h 45% 0.00in /  0mm 83.0 W/m2
07:01 63.3 °F /  17.4 °C 41.5 °F /  5.3 °C 29.71in /  1006hPa ENE 0.9mph /  1.4km/h 2.0mph /  3.2km/h 45% 0.00in /  0mm 93.0 W/m2
07:06 63.9 °F /  17.7 °C 41.5 °F /  5.3 °C 29.71in /  1006hPa SE 0.9mph /  1.4km/h 3.0mph /  4.8km/h 44% 0.00in /  0mm 91.0 W/m2
07:11 64.6 °F /  18.1 °C 42.3 °F /  5.7 °C 29.71in /  1006hPa Calm   2.0mph /  3.2km/h 44% 0.00in /  0mm 102.0 W/m2
07:16 64.9 °F /  18.3 °C 42.4 °F /  5.8 °C 29.72in /  1006.3hPa Calm   3.0mph /  4.8km/h 44% 0.00in /  0mm 118.0 W/m2
07:21 65.5 °F /  18.6 °C 42.4 °F /  5.8 °C 29.72in /  1006.3hPa Calm   3.0mph /  4.8km/h 43% 0.00in /  0mm 111.0 W/m2
07:26 65.8 °F /  18.8 °C 42.1 °F /  5.6 °C 29.72in /  1006.3hPa East 0.9mph /  1.4km/h 4.0mph /  6.4km/h 42% 0.00in /  0mm 111.0 W/m2
07:31 66.4 °F /  19.1 °C 41.9 °F /  5.5 °C 29.72in /  1006.3hPa East 2.0mph /  3.2km/h 3.0mph /  4.8km/h 41% 0.00in /  0mm 128.0 W/m2
07:37 66.7 °F /  19.3 °C 41.7 °F /  5.4 °C 29.72in /  1006.3hPa Calm   3.0mph /  4.8km/h 40% 0.00in /  0mm 107.0 W/m2
07:42 67.3 °F /  19.6 °C 41.5 °F /  5.3 °C 29.72in /  1006.3hPa Calm   1.0mph /  1.6km/h 39% 0.00in /  0mm 132.0 W/m2
07:47 67.6 °F /  19.8 °C 42.4 °F /  5.8 °C 29.73in /  1006.7hPa Calm   1.0mph /  1.6km/h 40% 0.00in /  0mm 163.0 W/m2
07:52 68.2 °F /  20.1 °C 42.3 °F /  5.7 °C 29.73in /  1006.7hPa Calm     39% 0.00in /  0mm 197.0 W/m2
07:57 68.5 °F /  20.3 °C 43.3 °F /  6.3 °C 29.72in /  1006.3hPa Calm     40% 0.00in /  0mm 223.0 W/m2
08:02 69.3 °F /  20.7 °C 42.6 °F /  5.9 °C 29.73in /  1006.7hPa NE 0.9mph /  1.4km/h 2.0mph /  3.2km/h 38% 0.00in /  0mm 258.0 W/m2
08:07 70.2 °F /  21.2 °C 41.2 °F /  5.1 °C 29.73in /  1006.7hPa NE 4.0mph /  6.4km/h 8.0mph /  12.9km/h 35% 0.00in /  0mm 362.0 W/m2
08:12 71.4 °F /  21.9 °C 41.5 °F /  5.3 °C 29.73in /  1006.7hPa East 0.9mph /  1.4km/h 6.0mph /  9.7km/h 34% 0.00in /  0mm 313.0 W/m2
08:17 72.9 °F /  22.7 °C 44.4 °F /  6.9 °C 29.73in /  1006.7hPa NE 2.9mph /  4.7km/h 11.0mph /  17.7km/h 36% 0.00in /  0mm 489.0 W/m2
08:23 73.8 °F /  23.2 °C 43.7 °F /  6.5 °C 29.72in /  1006.3hPa Calm   7.0mph /  11.3km/h 34% 0.00in /  0mm 195.0 W/m2
08:28 74.5 °F /  23.6 °C 44.2 °F /  6.8 °C 29.72in /  1006.3hPa ESE 2.9mph /  4.7km/h 6.0mph /  9.7km/h 34% 0.00in /  0mm 527.0 W/m2
08:33 75.0 °F /  23.9 °C 42.3 °F /  5.7 °C 29.73in /  1006.7hPa NNE 4.0mph /  6.4km/h 10.0mph /  16.1km/h 31% 0.00in /  0mm 547.0 W/m2
08:38 75.6 °F /  24.2 °C 41.9 °F /  5.5 °C 29.73in /  1006.7hPa NE 2.9mph /  4.7km/h 8.0mph /  12.9km/h 30% 0.00in /  0mm 568.0 W/m2
08:43 76.1 °F /  24.5 °C 41.5 °F /  5.3 °C 29.72in /  1006.3hPa Calm   9.0mph /  14.5km/h 29% 0.00in /  0mm 591.0 W/m2
08:48 76.6 °F /  24.8 °C 40.1 °F /  4.5 °C 29.73in /  1006.7hPa North 4.9mph /  7.9km/h 5.0mph /  8km/h 27% 0.00in /  0mm 605.0 W/m2
08:53 77.4 °F /  25.2 °C 41.7 °F /  5.4 °C 29.73in /  1006.7hPa NW 4.0mph /  6.4km/h 7.0mph /  11.3km/h 28% 0.00in /  0mm 622.0 W/m2
08:58 77.9 °F /  25.5 °C 41.2 °F /  5.1 °C 29.72in /  1006.3hPa NNW 2.0mph /  3.2km/h 3.0mph /  4.8km/h 27% 0.00in /  0mm 638.0 W/m2
09:03 78.4 °F /  25.8 °C 39.7 °F /  4.3 °C 29.72in /  1006.3hPa NNW 4.9mph /  7.9km/h 6.0mph /  9.7km/h 25% 0.00in /  0mm 659.0 W/m2
09:09 79.2 °F /  26.2 °C 41.4 °F /  5.2 °C 29.72in /  1006.3hPa Calm   3.0mph /  4.8km/h 26% 0.00in /  0mm 677.0 W/m2
09:14 79.3 °F /  26.3 °C 42.4 °F /  5.8 °C 29.72in /  1006.3hPa NNW 2.9mph /  4.7km/h 7.0mph /  11.3km/h 27% 0.00in /  0mm 694.0 W/m2
09:19 79.9 °F /  26.6 °C 43.0 °F /  6.1 °C 29.72in /  1006.3hPa Calm   1.0mph /  1.6km/h 27% 0.00in /  0mm 708.0 W/m2
09:24 80.1 °F /  26.7 °C 43.0 °F /  6.1 °C 29.72in /  1006.3hPa NNW 2.0mph /  3.2km/h 6.0mph /  9.7km/h 27% 0.00in /  0mm 726.0 W/m2
09:29 80.2 °F /  26.8 °C 39.0 °F /  3.9 °C 29.72in /  1006.3hPa North 6.9mph /  11.1km/h 7.0mph /  11.3km/h 23% 0.00in /  0mm 747.0 W/m2
09:34 80.4 °F /  26.9 °C 39.2 °F /  4 °C 29.72in /  1006.3hPa WNW 4.0mph /  6.4km/h 5.0mph /  8km/h 23% 0.00in /  0mm 759.0 W/m2
09:39 80.4 °F /  26.9 °C 35.6 °F /  2 °C 29.72in /  1006.3hPa NNW 2.0mph /  3.2km/h 9.0mph /  14.5km/h 20% 0.00in /  0mm 779.0 W/m2
09:44 80.4 °F /  26.9 °C 38.1 °F /  3.4 °C 29.72in /  1006.3hPa NNE 6.9mph /  11.1km/h 7.0mph /  11.3km/h 22% 0.00in /  0mm 791.0 W/m2
09:49 81.0 °F /  27.2 °C 37.4 °F /  3 °C 29.72in /  1006.3hPa NNW 4.0mph /  6.4km/h 7.0mph /  11.3km/h 21% 0.00in /  0mm 805.0 W/m2
09:54 81.1 °F /  27.3 °C 37.6 °F /  3.1 °C 29.72in /  1006.3hPa NNW 4.0mph /  6.4km/h 7.0mph /  11.3km/h 21% 0.00in /  0mm 819.0 W/m2
10:00 81.7 °F /  27.6 °C 39.2 °F /  4 °C 29.72in /  1006.3hPa North 0.9mph /  1.4km/h 7.0mph /  11.3km/h 22% 0.00in /  0mm 830.0 W/m2
10:05 81.7 °F /  27.6 °C 40.3 °F /  4.6 °C 29.72in /  1006.3hPa Calm   4.0mph /  6.4km/h 23% 0.00in /  0mm 842.0 W/m2
10:10 81.9 °F /  27.7 °C 39.2 °F /  4 °C 29.72in /  1006.3hPa WNW 0.9mph /  1.4km/h 7.0mph /  11.3km/h 22% 0.00in /  0mm 856.0 W/m2
10:15 82.2 °F /  27.9 °C 43.0 °F /  6.1 °C 29.72in /  1006.3hPa NNW 9.0mph /  14.5km/h 9.0mph /  14.5km/h 25% 0.00in /  0mm 874.0 W/m2
10:20 82.4 °F /  28 °C 43.0 °F /  6.1 °C 29.72in /  1006.3hPa WNW 0.9mph /  1.4km/h 9.0mph /  14.5km/h 25% 0.00in /  0mm 882.0 W/m2
10:25 82.2 °F /  27.9 °C 43.9 °F /  6.6 °C 29.72in /  1006.3hPa NNW 8.1mph /  13km/h 8.1mph /  13km/h 26% 0.00in /  0mm 896.0 W/m2
10:30 82.4 °F /  28 °C 44.1 °F /  6.7 °C 29.72in /  1006.3hPa NW 4.9mph /  7.9km/h 6.0mph /  9.7km/h 26% 0.00in /  0mm 904.0 W/m2
10:35 82.8 °F /  28.2 °C 42.3 °F /  5.7 °C 29.72in /  1006.3hPa West 2.0mph /  3.2km/h 3.0mph /  4.8km/h 24% 0.00in /  0mm 918.0 W/m2
10:41 82.9 °F /  28.3 °C 42.4 °F /  5.8 °C 29.72in /  1006.3hPa Calm   4.0mph /  6.4km/h 24% 0.00in /  0mm 930.0 W/m2
10:46 83.5 °F /  28.6 °C 41.7 °F /  5.4 °C 29.72in /  1006.3hPa North 4.0mph /  6.4km/h 7.0mph /  11.3km/h 23% 0.00in /  0mm 944.0 W/m2
10:51 83.7 °F /  28.7 °C 39.6 °F /  4.2 °C 29.72in /  1006.3hPa West 2.9mph /  4.7km/h 8.0mph /  12.9km/h 21% 0.00in /  0mm 954.0 W/m2
10:56 83.7 °F /  28.7 °C 39.6 °F /  4.2 °C 29.72in /  1006.3hPa Calm   5.0mph /  8km/h 21% 0.00in /  0mm 963.0 W/m2
11:01 83.7 °F /  28.7 °C 39.6 °F /  4.2 °C 29.72in /  1006.3hPa NW 0.9mph /  1.4km/h 9.0mph /  14.5km/h 21% 0.00in /  0mm 972.0 W/m2
11:06 83.8 °F /  28.8 °C 41.0 °F /  5 °C 29.72in /  1006.3hPa North 4.0mph /  6.4km/h 6.0mph /  9.7km/h 22% 0.00in /  0mm 979.0 W/m2
11:12 83.7 °F /  28.7 °C 40.8 °F /  4.9 °C 29.72in /  1006.3hPa Calm   3.0mph /  4.8km/h 22% 0.00in /  0mm 984.0 W/m2
11:17 83.7 °F /  28.7 °C 41.9 °F /  5.5 °C 29.72in /  1006.3hPa NNW 2.0mph /  3.2km/h 6.0mph /  9.7km/h 23% 0.00in /  0mm 993.0 W/m2
11:22 83.8 °F /  28.8 °C 43.2 °F /  6.2 °C 29.71in /  1006hPa South 2.9mph /  4.7km/h 5.0mph /  8km/h 24% 0.00in /  0mm 1000.0 W/m2
11:27 84.0 °F /  28.9 °C 44.4 °F /  6.9 °C 29.71in /  1006hPa NNW 0.9mph /  1.4km/h 3.0mph /  4.8km/h 25% 0.00in /  0mm 1007.0 W/m2
11:33 84.6 °F /  29.2 °C 42.6 °F /  5.9 °C 29.71in /  1006hPa West 6.9mph /  11.1km/h 7.0mph /  11.3km/h 23% 0.00in /  0mm 1007.0 W/m2
11:38 84.9 °F /  29.4 °C 44.1 °F /  6.7 °C 29.71in /  1006hPa North 2.0mph /  3.2km/h 4.0mph /  6.4km/h 24% 0.00in /  0mm 1013.0 W/m2
11:43 84.9 °F /  29.4 °C 45.1 °F /  7.3 °C 29.71in /  1006hPa WNW 2.0mph /  3.2km/h 7.0mph /  11.3km/h 25% 0.00in /  0mm 1018.0 W/m2
11:48 84.6 °F /  29.2 °C 45.0 °F /  7.2 °C 29.71in /  1006hPa WNW 2.0mph /  3.2km/h 4.0mph /  6.4km/h 25% 0.00in /  0mm 1021.0 W/m2
11:53 84.6 °F /  29.2 °C 45.0 °F /  7.2 °C 29.70in /  1005.6hPa NNW 2.0mph /  3.2km/h 5.0mph /  8km/h 25% 0.00in /  0mm 1027.0 W/m2
11:58 84.6 °F /  29.2 °C 45.0 °F /  7.2 °C 29.70in /  1005.6hPa South 2.0mph /  3.2km/h 8.0mph /  12.9km/h 25% 0.00in /  0mm 1034.0 W/m2
12:03 84.6 °F /  29.2 °C 45.9 °F /  7.7 °C 29.69in /  1005.3hPa NW 2.0mph /  3.2km/h 3.0mph /  4.8km/h 26% 0.00in /  0mm 1037.0 W/m2
12:08 84.7 °F /  29.3 °C 46.0 °F /  7.8 °C 29.69in /  1005.3hPa NNE 4.9mph /  7.9km/h 9.0mph /  14.5km/h 26% 0.00in /  0mm 1048.0 W/m2
12:14 85.3 °F /  29.6 °C 46.6 °F /  8.1 °C 29.69in /  1005.3hPa West 0.9mph /  1.4km/h 5.0mph /  8km/h 26% 0.00in /  0mm 192.0 W/m2
12:19 84.9 °F /  29.4 °C 47.1 °F /  8.4 °C 29.69in /  1005.3hPa NNE 0.9mph /  1.4km/h 7.0mph /  11.3km/h 27% 0.00in /  0mm 1053.0 W/m2
12:24 84.7 °F /  29.3 °C 47.1 °F /  8.4 °C 29.69in /  1005.3hPa West 0.9mph /  1.4km/h 14.0mph /  22.5km/h 27% 0.00in /  0mm 1048.0 W/m2
12:29 85.3 °F /  29.6 °C 46.6 °F /  8.1 °C 29.69in /  1005.3hPa NW 2.0mph /  3.2km/h 4.0mph /  6.4km/h 26% 0.00in /  0mm 1042.0 W/m2
12:34 85.6 °F /  29.8 °C 46.8 °F /  8.2 °C 29.68in /  1005hPa West 0.9mph /  1.4km/h 3.0mph /  4.8km/h 26% 0.00in /  0mm 1053.0 W/m2
12:39 85.6 °F /  29.8 °C 47.8 °F /  8.8 °C 29.68in /  1005hPa Calm   6.0mph /  9.7km/h 27% 0.00in /  0mm 1056.0 W/m2
12:44 86.2 °F /  30.1 °C 48.2 °F /  9 °C 29.68in /  1005hPa WNW 4.0mph /  6.4km/h 10.0mph /  16.1km/h 27% 0.00in /  0mm 1063.0 W/m2
12:49 86.4 °F /  30.2 °C 47.5 °F /  8.6 °C 29.67in /  1004.6hPa North 2.9mph /  4.7km/h 9.0mph /  14.5km/h 26% 0.00in /  0mm 1074.0 W/m2
12:55 86.7 °F /  30.4 °C 47.7 °F /  8.7 °C 29.67in /  1004.6hPa Calm   8.0mph /  12.9km/h 26% 0.00in /  0mm 1099.0 W/m2
13:00 87.3 °F /  30.7 °C 46.0 °F /  7.8 °C 29.67in /  1004.6hPa NNW 2.9mph /  4.7km/h 7.0mph /  11.3km/h 24% 0.00in /  0mm 181.0 W/m2
13:05 87.1 °F /  30.6 °C 46.9 °F /  8.3 °C 29.66in /  1004.3hPa NNW 6.0mph /  9.7km/h 11.0mph /  17.7km/h 25% 0.00in /  0mm 1195.0 W/m2
13:10 87.3 °F /  30.7 °C 46.0 °F /  7.8 °C 29.66in /  1004.3hPa NNW 2.0mph /  3.2km/h 7.0mph /  11.3km/h 24% 0.00in /  0mm 1086.0 W/m2
13:15 87.3 °F /  30.7 °C 46.0 °F /  7.8 °C 29.66in /  1004.3hPa SW 0.9mph /  1.4km/h 9.0mph /  14.5km/h 24% 0.00in /  0mm 1076.0 W/m2
13:20 87.1 °F /  30.6 °C 45.9 °F /  7.7 °C 29.65in /  1003.9hPa WNW 4.9mph /  7.9km/h 5.0mph /  8km/h 24% 0.00in /  0mm 1085.0 W/m2
13:25 87.3 °F /  30.7 °C 47.1 °F /  8.4 °C 29.65in /  1003.9hPa North 4.0mph /  6.4km/h 8.0mph /  12.9km/h 25% 0.00in /  0mm 1090.0 W/m2
13:30 87.6 °F /  30.9 °C 46.4 °F /  8 °C 29.65in /  1003.9hPa NNE 2.0mph /  3.2km/h 5.0mph /  8km/h 24% 0.00in /  0mm 1113.0 W/m2
13:35 88.0 °F /  31.1 °C 46.6 °F /  8.1 °C 29.65in /  1003.9hPa Calm   10.0mph /  16.1km/h 24% 0.00in /  0mm 1041.0 W/m2
13:40 88.5 °F /  31.4 °C 46.0 °F /  7.8 °C 29.64in /  1003.6hPa NNW 6.0mph /  9.7km/h 11.0mph /  17.7km/h 23% 0.00in /  0mm 1056.0 W/m2
13:46 88.9 °F /  31.6 °C 46.2 °F /  7.9 °C 29.64in /  1003.6hPa NW 2.0mph /  3.2km/h 9.0mph /  14.5km/h 23% 0.00in /  0mm 1048.0 W/m2
13:51 88.7 °F /  31.5 °C 46.2 °F /  7.9 °C 29.64in /  1003.6hPa West 4.9mph /  7.9km/h 5.0mph /  8km/h 23% 0.00in /  0mm 1055.0 W/m2
13:56 89.2 °F /  31.8 °C 44.2 °F /  6.8 °C 29.64in /  1003.6hPa Calm   7.0mph /  11.3km/h 21% 0.00in /  0mm 1056.0 W/m2
14:01 89.4 °F /  31.9 °C 45.5 °F /  7.5 °C 29.63in /  1003.3hPa WSW 4.0mph /  6.4km/h 6.0mph /  9.7km/h 22% 0.00in /  0mm 243.0 W/m2
14:06 89.2 °F /  31.8 °C 45.5 °F /  7.5 °C 29.63in /  1003.3hPa WSW 2.0mph /  3.2km/h 8.0mph /  12.9km/h 22% 0.00in /  0mm 1053.0 W/m2
14:11 89.2 °F /  31.8 °C 45.5 °F /  7.5 °C 29.63in /  1003.3hPa NNE 4.0mph /  6.4km/h 8.0mph /  12.9km/h 22% 0.00in /  0mm 1044.0 W/m2
14:16 89.1 °F /  31.7 °C 46.4 °F /  8 °C 29.62in /  1002.9hPa NW 2.0mph /  3.2km/h 5.0mph /  8km/h 23% 0.00in /  0mm 315.0 W/m2
14:21 89.1 °F /  31.7 °C 46.4 °F /  8 °C 29.62in /  1002.9hPa NNW 4.0mph /  6.4km/h 8.0mph /  12.9km/h 23% 0.00in /  0mm 990.0 W/m2
14:26 88.9 °F /  31.6 °C 45.1 °F /  7.3 °C 29.62in /  1002.9hPa WSW 0.9mph /  1.4km/h 5.0mph /  8km/h 22% 0.00in /  0mm 1020.0 W/m2
14:32 89.1 °F /  31.7 °C 45.3 °F /  7.4 °C 29.61in /  1002.6hPa North 0.9mph /  1.4km/h 5.0mph /  8km/h 22% 0.00in /  0mm 1049.0 W/m2
14:37 89.1 °F /  31.7 °C 45.3 °F /  7.4 °C 29.61in /  1002.6hPa NW 6.0mph /  9.7km/h 10.0mph /  16.1km/h 22% 0.00in /  0mm 329.0 W/m2
14:42 88.2 °F /  31.2 °C 45.7 °F /  7.6 °C 29.61in /  1002.6hPa WSW 4.0mph /  6.4km/h 9.0mph /  14.5km/h 23% 0.00in /  0mm 272.0 W/m2
14:47 87.6 °F /  30.9 °C 45.3 °F /  7.4 °C 29.61in /  1002.6hPa WSW 2.0mph /  3.2km/h 8.0mph /  12.9km/h 23% 0.00in /  0mm 239.0 W/m2
14:52 86.7 °F /  30.4 °C 46.8 °F /  8.2 °C 29.60in /  1002.3hPa NNW 6.9mph /  11.1km/h 7.0mph /  11.3km/h 25% 0.00in /  0mm 185.0 W/m2
14:57 85.8 °F /  29.9 °C 45.9 °F /  7.7 °C 29.60in /  1002.3hPa West 6.0mph /  9.7km/h 7.0mph /  11.3km/h 25% 0.00in /  0mm 206.0 W/m2
15:02 85.3 °F /  29.6 °C 45.5 °F /  7.5 °C 29.60in /  1002.3hPa NNW 6.9mph /  11.1km/h 10.0mph /  16.1km/h 25% 0.00in /  0mm 223.0 W/m2
15:07 84.9 °F /  29.4 °C 46.2 °F /  7.9 °C 29.60in /  1002.3hPa North 2.0mph /  3.2km/h 4.0mph /  6.4km/h 26% 0.00in /  0mm 223.0 W/m2
15:13 84.7 °F /  29.3 °C 46.0 °F /  7.8 °C 29.60in /  1002.3hPa NW 11.0mph /  17.7km/h 11.0mph /  17.7km/h 26% 0.00in /  0mm 248.0 W/m2
15:19 84.2 °F /  29 °C 46.6 °F /  8.1 °C 29.60in /  1002.3hPa North 0.9mph /  1.4km/h 7.0mph /  11.3km/h 27% 0.00in /  0mm 271.0 W/m2
15:24 84.2 °F /  29 °C 47.5 °F /  8.6 °C 29.60in /  1002.3hPa North 4.9mph /  7.9km/h 6.0mph /  9.7km/h 28% 0.00in /  0mm 740.0 W/m2
15:29 84.7 °F /  29.3 °C 47.1 °F /  8.4 °C 29.59in /  1001.9hPa NW 6.9mph /  11.1km/h 7.0mph /  11.3km/h 27% 0.00in /  0mm 262.0 W/m2
15:34 84.6 °F /  29.2 °C 46.9 °F /  8.3 °C 29.59in /  1001.9hPa NNW 6.9mph /  11.1km/h 11.0mph /  17.7km/h 27% 0.00in /  0mm 227.0 W/m2
15:39 84.0 °F /  28.9 °C 46.4 °F /  8 °C 29.59in /  1001.9hPa NNW 4.9mph /  7.9km/h 10.0mph /  16.1km/h 27% 0.00in /  0mm 220.0 W/m2
15:44 83.8 °F /  28.8 °C 46.2 °F /  7.9 °C 29.59in /  1001.9hPa NNW 8.1mph /  13km/h 11.0mph /  17.7km/h 27% 0.00in /  0mm 197.0 W/m2
15:49 83.7 °F /  28.7 °C 46.2 °F /  7.9 °C 29.59in /  1001.9hPa Calm   6.0mph /  9.7km/h 27% 0.00in /  0mm 181.0 W/m2
15:54 83.5 °F /  28.6 °C 48.7 °F /  9.3 °C 29.59in /  1001.9hPa SW 6.0mph /  9.7km/h 8.0mph /  12.9km/h 30% 0.00in /  0mm 174.0 W/m2
15:59 82.6 °F /  28.1 °C 44.2 °F /  6.8 °C 29.59in /  1001.9hPa NNW 0.9mph /  1.4km/h 4.0mph /  6.4km/h 26% 0.00in /  0mm 169.0 W/m2
16:05 82.4 °F /  28 °C 45.1 °F /  7.3 °C 29.59in /  1001.9hPa Calm   4.0mph /  6.4km/h 27% 0.00in /  0mm 171.0 W/m2
16:10 82.6 °F /  28.1 °C 44.2 °F /  6.8 °C 29.58in /  1001.6hPa Calm   4.0mph /  6.4km/h 26% 0.00in /  0mm 156.0 W/m2
16:15 82.8 °F /  28.2 °C 44.4 °F /  6.9 °C 29.58in /  1001.6hPa NNW 0.9mph /  1.4km/h 1.0mph /  1.6km/h 26% 0.00in /  0mm 160.0 W/m2
16:20 83.1 °F /  28.4 °C 44.6 °F /  7 °C 29.58in /  1001.6hPa WSW 0.9mph /  1.4km/h 5.0mph /  8km/h 26% 0.00in /  0mm 178.0 W/m2
16:25 83.3 °F /  28.5 °C 46.8 °F /  8.2 °C 29.58in /  1001.6hPa NNW 4.9mph /  7.9km/h 8.0mph /  12.9km/h 28% 0.00in /  0mm 206.0 W/m2
16:30 82.9 °F /  28.3 °C 47.5 °F /  8.6 °C 29.58in /  1001.6hPa NNE 2.9mph /  4.7km/h 9.0mph /  14.5km/h 29% 0.00in /  0mm 176.0 W/m2
16:35 82.8 °F /  28.2 °C 46.4 °F /  8 °C 29.57in /  1001.2hPa North 4.0mph /  6.4km/h 5.0mph /  8km/h 28% 0.00in /  0mm 134.0 W/m2
16:40 82.8 °F /  28.2 °C 46.4 °F /  8 °C 29.57in /  1001.2hPa NNE 4.9mph /  7.9km/h 7.0mph /  11.3km/h 28% 0.00in /  0mm 165.0 W/m2
16:45 82.8 °F /  28.2 °C 45.3 °F /  7.4 °C 29.57in /  1001.2hPa NNW 2.0mph /  3.2km/h 8.0mph /  12.9km/h 27% 0.00in /  0mm 142.0 W/m2
16:51 82.8 °F /  28.2 °C 45.3 °F /  7.4 °C 29.57in /  1001.2hPa Calm   3.0mph /  4.8km/h 27% 0.00in /  0mm 148.0 W/m2
16:56 82.9 °F /  28.3 °C 42.4 °F /  5.8 °C 29.57in /  1001.2hPa NNE 4.0mph /  6.4km/h 4.0mph /  6.4km/h 24% 0.00in /  0mm 236.0 W/m2
17:01 83.5 °F /  28.6 °C 43.0 °F /  6.1 °C 29.57in /  1001.2hPa Calm   5.0mph /  8km/h 24% 0.00in /  0mm 128.0 W/m2
17:06 83.8 °F /  28.8 °C 42.1 °F /  5.6 °C 29.57in /  1001.2hPa NNE 4.0mph /  6.4km/h 5.0mph /  8km/h 23% 0.00in /  0mm 107.0 W/m2
17:11 83.8 °F /  28.8 °C 43.2 °F /  6.2 °C 29.57in /  1001.2hPa WSW 0.9mph /  1.4km/h 3.0mph /  4.8km/h 24% 0.00in /  0mm 111.0 W/m2
17:16 83.7 °F /  28.7 °C 44.1 °F /  6.7 °C 29.57in /  1001.2hPa Calm   3.0mph /  4.8km/h 25% 0.00in /  0mm 127.0 W/m2
17:21 83.7 °F /  28.7 °C 43.0 °F /  6.1 °C 29.57in /  1001.2hPa West 0.9mph /  1.4km/h 3.0mph /  4.8km/h 24% 0.00in /  0mm 105.0 W/m2
17:26 83.7 °F /  28.7 °C 43.0 °F /  6.1 °C 29.57in /  1001.2hPa NE 0.9mph /  1.4km/h 10.0mph /  16.1km/h 24% 0.00in /  0mm 364.0 W/m2
17:31 84.4 °F /  29.1 °C 44.8 °F /  7.1 °C 29.57in /  1001.2hPa Calm   4.0mph /  6.4km/h 25% 0.00in /  0mm 369.0 W/m2
17:37 84.9 °F /  29.4 °C 44.1 °F /  6.7 °C 29.57in /  1001.2hPa West 2.0mph /  3.2km/h 5.0mph /  8km/h 24% 0.00in /  0mm 357.0 W/m2
17:42 86.0 °F /  30 °C 37.6 °F /  3.1 °C 29.58in /  1001.6hPa SW 2.9mph /  4.7km/h 9.0mph /  14.5km/h 18% 0.00in /  0mm 341.0 W/m2
17:47 86.7 °F /  30.4 °C 36.7 °F /  2.6 °C 29.58in /  1001.6hPa WSW 8.1mph /  13km/h 14.0mph /  22.5km/h 17% 0.00in /  0mm 322.0 W/m2
17:52 86.5 °F /  30.3 °C 36.5 °F /  2.5 °C 29.58in /  1001.6hPa WSW 8.1mph /  13km/h 13.0mph /  20.9km/h 17% 0.00in /  0mm 285.0 W/m2
17:57 86.4 °F /  30.2 °C 36.3 °F /  2.4 °C 29.59in /  1001.9hPa SW 8.1mph /  13km/h 13.0mph /  20.9km/h 17% 0.00in /  0mm 250.0 W/m2
18:02 85.8 °F /  29.9 °C 36.0 °F /  2.2 °C 29.59in /  1001.9hPa SW 0.9mph /  1.4km/h 10.0mph /  16.1km/h 17% 0.00in /  0mm 227.0 W/m2
18:07 85.5 °F /  29.7 °C 35.6 °F /  2 °C 29.60in /  1002.3hPa SSW 6.0mph /  9.7km/h 15.0mph /  24.1km/h 17% 0.00in /  0mm 204.0 W/m2
18:12 84.7 °F /  29.3 °C 36.5 °F /  2.5 °C 29.60in /  1002.3hPa WSW 10.1mph /  16.3km/h 12.0mph /  19.3km/h 18% 0.00in /  0mm 190.0 W/m2
18:17 84.2 °F /  29 °C 36.1 °F /  2.3 °C 29.61in /  1002.6hPa WSW 8.9mph /  14.3km/h 14.0mph /  22.5km/h 18% 0.00in /  0mm 149.0 W/m2
18:22 83.8 °F /  28.8 °C 35.8 °F /  2.1 °C 29.61in /  1002.6hPa SW 6.9mph /  11.1km/h 10.0mph /  16.1km/h 18% 0.00in /  0mm 127.0 W/m2
18:28 83.8 °F /  28.8 °C 35.8 °F /  2.1 °C 29.62in /  1002.9hPa SW 4.9mph /  7.9km/h 7.0mph /  11.3km/h 18% 0.00in /  0mm 114.0 W/m2
18:33 83.7 °F /  28.7 °C 35.6 °F /  2 °C 29.62in /  1002.9hPa West 11.0mph /  17.7km/h 11.0mph /  17.7km/h 18% 0.00in /  0mm 105.0 W/m2
18:38 83.1 °F /  28.4 °C 36.7 °F /  2.6 °C 29.62in /  1002.9hPa SW 4.9mph /  7.9km/h 10.0mph /  16.1km/h 19% 0.00in /  0mm 100.0 W/m2
18:43 82.9 °F /  28.3 °C 36.5 °F /  2.5 °C 29.62in /  1002.9hPa West 4.0mph /  6.4km/h 8.0mph /  12.9km/h 19% 0.00in /  0mm 74.0 W/m2
18:48 82.6 °F /  28.1 °C 36.1 °F /  2.3 °C 29.62in /  1002.9hPa West 6.0mph /  9.7km/h 10.0mph /  16.1km/h 19% 0.00in /  0mm 62.0 W/m2
18:53 82.0 °F /  27.8 °C 35.8 °F /  2.1 °C 29.62in /  1002.9hPa West 6.0mph /  9.7km/h 12.0mph /  19.3km/h 19% 0.00in /  0mm 46.0 W/m2
18:58 81.3 °F /  27.4 °C 36.5 °F /  2.5 °C 29.63in /  1003.3hPa WNW 2.9mph /  4.7km/h 13.0mph /  20.9km/h 20% 0.00in /  0mm 32.0 W/m2
19:03 81.0 °F /  27.2 °C 36.1 °F /  2.3 °C 29.64in /  1003.6hPa West 2.0mph /  3.2km/h 4.0mph /  6.4km/h 20% 0.00in /  0mm 19.0 W/m2
19:08 80.8 °F /  27.1 °C 37.2 °F /  2.9 °C 29.65in /  1003.9hPa NW 6.0mph /  9.7km/h 8.0mph /  12.9km/h 21% 0.00in /  0mm 12.0 W/m2
19:13 80.1 °F /  26.7 °C 50.0 °F /  10 °C 29.66in /  1004.3hPa NNW 4.0mph /  6.4km/h 9.0mph /  14.5km/h 35% 0.00in /  0mm 7.0 W/m2
19:19 78.3 °F /  25.7 °C 49.8 °F /  9.9 °C 29.66in /  1004.3hPa North 10.1mph /  16.3km/h 17.0mph /  27.4km/h 37% 0.00in /  0mm 5.0 W/m2
19:24 76.8 °F /  24.9 °C 50.7 °F /  10.4 °C 29.66in /  1004.3hPa NW 8.1mph /  13km/h 10.0mph /  16.1km/h 40% 0.00in /  0mm 0.0 W/m2
19:29 76.3 °F /  24.6 °C 50.9 °F /  10.5 °C 29.66in /  1004.3hPa NNW 6.0mph /  9.7km/h 7.0mph /  11.3km/h 41% 0.00in /  0mm 0.0 W/m2
19:34 75.6 °F /  24.2 °C 50.9 °F /  10.5 °C 29.67in /  1004.6hPa NNW 4.0mph /  6.4km/h 6.0mph /  9.7km/h 42% 0.00in /  0mm 0.0 W/m2
19:40 75.0 °F /  23.9 °C 51.1 °F /  10.6 °C 29.67in /  1004.6hPa NNW 4.0mph /  6.4km/h 7.0mph /  11.3km/h 43% 0.00in /  0mm 0.0 W/m2
19:45 74.7 °F /  23.7 °C 51.3 °F /  10.7 °C 29.67in /  1004.6hPa North 8.1mph /  13km/h 9.0mph /  14.5km/h 44% 0.00in /  0mm 0.0 W/m2
19:50 73.9 °F /  23.3 °C 50.7 °F /  10.4 °C 29.67in /  1004.6hPa NNW 2.0mph /  3.2km/h 9.0mph /  14.5km/h 44% 0.00in /  0mm 0.0 W/m2
19:55 73.6 °F /  23.1 °C 50.4 °F /  10.2 °C 29.67in /  1004.6hPa North 2.9mph /  4.7km/h 9.0mph /  14.5km/h 44% 0.00in /  0mm 0.0 W/m2
20:01 73.4 °F /  23 °C 50.2 °F /  10.1 °C 29.68in /  1005hPa North 0.9mph /  1.4km/h 7.0mph /  11.3km/h 44% 0.00in /  0mm 0.0 W/m2
20:06 73.0 °F /  22.8 °C 49.3 °F /  9.6 °C 29.68in /  1005hPa North 2.9mph /  4.7km/h 9.0mph /  14.5km/h 43% 0.00in /  0mm 0.0 W/m2
20:11 72.9 °F /  22.7 °C 49.6 °F /  9.8 °C 29.68in /  1005hPa NNE 2.9mph /  4.7km/h 5.0mph /  8km/h 44% 0.00in /  0mm 0.0 W/m2
20:16 72.9 °F /  22.7 °C 49.6 °F /  9.8 °C 29.68in /  1005hPa NE 2.9mph /  4.7km/h 5.0mph /  8km/h 44% 0.00in /  0mm 0.0 W/m2
20:21 72.7 °F /  22.6 °C 49.5 °F /  9.7 °C 29.69in /  1005.3hPa NNW 2.9mph /  4.7km/h 6.0mph /  9.7km/h 44% 0.00in /  0mm 0.0 W/m2
20:26 72.5 °F /  22.5 °C 50.0 °F /  10 °C 29.69in /  1005.3hPa North 6.0mph /  9.7km/h 7.0mph /  11.3km/h 45% 0.00in /  0mm 0.0 W/m2
20:31 72.3 °F /  22.4 °C 49.8 °F /  9.9 °C 29.69in /  1005.3hPa NNW 2.0mph /  3.2km/h 7.0mph /  11.3km/h 45% 0.00in /  0mm 0.0 W/m2
20:36 72.1 °F /  22.3 °C 49.6 °F /  9.8 °C 29.69in /  1005.3hPa NNW 6.0mph /  9.7km/h 7.0mph /  11.3km/h 45% 0.00in /  0mm 0.0 W/m2
20:41 72.0 °F /  22.2 °C 50.0 °F /  10 °C 29.69in /  1005.3hPa NW 4.9mph /  7.9km/h 8.0mph /  12.9km/h 46% 0.00in /  0mm 0.0 W/m2
20:47 72.0 °F /  22.2 °C 50.7 °F /  10.4 °C 29.69in /  1005.3hPa NNW 0.9mph /  1.4km/h 7.0mph /  11.3km/h 47% 0.00in /  0mm 0.0 W/m2
20:52 71.8 °F /  22.1 °C 50.5 °F /  10.3 °C 29.70in /  1005.6hPa NNW 4.9mph /  7.9km/h 7.0mph /  11.3km/h 47% 0.00in /  0mm 0.0 W/m2
20:57 71.6 °F /  22 °C 50.4 °F /  10.2 °C 29.70in /  1005.6hPa Calm   5.0mph /  8km/h 47% 0.00in /  0mm 0.0 W/m2
21:02 71.4 °F /  21.9 °C 50.7 °F /  10.4 °C 29.70in /  1005.6hPa NNW 2.9mph /  4.7km/h 4.0mph /  6.4km/h 48% 0.00in /  0mm 0.0 W/m2
21:07 71.2 °F /  21.8 °C 50.5 °F /  10.3 °C 29.70in /  1005.6hPa Calm   4.0mph /  6.4km/h 48% 0.00in /  0mm 0.0 W/m2
21:12 71.2 °F /  21.8 °C 50.5 °F /  10.3 °C 29.70in /  1005.6hPa Calm     48% 0.00in /  0mm 0.0 W/m2
21:17 71.1 °F /  21.7 °C 50.4 °F /  10.2 °C 29.70in /  1005.6hPa NNW 2.9mph /  4.7km/h 5.0mph /  8km/h 48% 0.00in /  0mm 0.0 W/m2
21:22 70.9 °F /  21.6 °C 50.2 °F /  10.1 °C 29.70in /  1005.6hPa Calm   2.0mph /  3.2km/h 48% 0.00in /  0mm 0.0 W/m2
21:27 70.9 °F /  21.6 °C 50.2 °F /  10.1 °C 29.70in /  1005.6hPa WNW 2.0mph /  3.2km/h 3.0mph /  4.8km/h 48% 0.00in /  0mm 0.0 W/m2
21:32 70.5 °F /  21.4 °C 49.8 °F /  9.9 °C 29.70in /  1005.6hPa NW 2.9mph /  4.7km/h 4.0mph /  6.4km/h 48% 0.00in /  0mm 0.0 W/m2
21:38 70.5 °F /  21.4 °C 49.8 °F /  9.9 °C 29.70in /  1005.6hPa North 2.0mph /  3.2km/h 4.0mph /  6.4km/h 48% 0.00in /  0mm 0.0 W/m2
21:43 70.3 °F /  21.3 °C 49.6 °F /  9.8 °C 29.70in /  1005.6hPa North 2.0mph /  3.2km/h 2.0mph /  3.2km/h 48% 0.00in /  0mm 0.0 W/m2
21:48 70.3 °F /  21.3 °C 49.6 °F /  9.8 °C 29.70in /  1005.6hPa Calm   6.0mph /  9.7km/h 48% 0.00in /  0mm 0.0 W/m2
21:54 70.3 °F /  21.3 °C 49.6 °F /  9.8 °C 29.70in /  1005.6hPa Calm   3.0mph /  4.8km/h 48% 0.00in /  0mm 0.0 W/m2
21:59 70.2 °F /  21.2 °C 49.6 °F /  9.8 °C 29.70in /  1005.6hPa Calm   1.0mph /  1.6km/h 48% 0.00in /  0mm 0.0 W/m2
22:04 70.2 °F /  21.2 °C 49.6 °F /  9.8 °C 29.70in /  1005.6hPa Calm   1.0mph /  1.6km/h 48% 0.00in /  0mm 0.0 W/m2
22:09 70.0 °F /  21.1 °C 49.5 °F /  9.7 °C 29.70in /  1005.6hPa Calm   2.0mph /  3.2km/h 48% 0.00in /  0mm 0.0 W/m2
22:14 70.0 °F /  21.1 °C 49.5 °F /  9.7 °C 29.70in /  1005.6hPa Calm   2.0mph /  3.2km/h 48% 0.00in /  0mm 0.0 W/m2
22:19 69.8 °F /  21 °C 49.8 °F /  9.9 °C 29.70in /  1005.6hPa Calm   3.0mph /  4.8km/h 49% 0.00in /  0mm 0.0 W/m2
22:24 69.6 °F /  20.9 °C 49.6 °F /  9.8 °C 29.70in /  1005.6hPa NE 0.9mph /  1.4km/h 2.0mph /  3.2km/h 49% 0.00in /  0mm 0.0 W/m2
22:30 69.6 °F /  20.9 °C 49.6 °F /  9.8 °C 29.70in /  1005.6hPa Calm   3.0mph /  4.8km/h 49% 0.00in /  0mm 0.0 W/m2
22:35 69.4 °F /  20.8 °C 50.0 °F /  10 °C 29.70in /  1005.6hPa NE 2.0mph /  3.2km/h 2.0mph /  3.2km/h 50% 0.00in /  0mm 0.0 W/m2
22:40 69.4 °F /  20.8 °C 50.0 °F /  10 °C 29.71in /  1006hPa NNE 2.0mph /  3.2km/h 4.0mph /  6.4km/h 50% 0.00in /  0mm 0.0 W/m2
22:45 69.3 °F /  20.7 °C 49.8 °F /  9.9 °C 29.71in /  1006hPa NNE 0.9mph /  1.4km/h 3.0mph /  4.8km/h 50% 0.00in /  0mm 0.0 W/m2
22:51 69.1 °F /  20.6 °C 50.2 °F /  10.1 °C 29.71in /  1006hPa Calm   2.0mph /  3.2km/h 51% 0.00in /  0mm 0.0 W/m2
22:56 69.1 °F /  20.6 °C 50.2 °F /  10.1 °C 29.71in /  1006hPa NNW 0.9mph /  1.4km/h 2.0mph /  3.2km/h 51% 0.00in /  0mm 0.0 W/m2
23:01 68.9 °F /  20.5 °C 50.5 °F /  10.3 °C 29.71in /  1006hPa Calm   2.0mph /  3.2km/h 52% 0.00in /  0mm 0.0 W/m2
23:06 68.7 °F /  20.4 °C 50.4 °F /  10.2 °C 29.71in /  1006hPa Calm     52% 0.00in /  0mm 0.0 W/m2
23:12 68.5 °F /  20.3 °C 49.6 °F /  9.8 °C 29.71in /  1006hPa Calm   1.0mph /  1.6km/h 51% 0.00in /  0mm 0.0 W/m2
23:17 68.4 °F /  20.2 °C 50.0 °F /  10 °C 29.71in /  1006hPa Calm   1.0mph /  1.6km/h 52% 0.00in /  0mm 0.0 W/m2
23:22 68.2 °F /  20.1 °C 50.4 °F /  10.2 °C 29.70in /  1005.6hPa Calm   1.0mph /  1.6km/h 53% 0.00in /  0mm 0.0 W/m2
23:28 68.2 °F /  20.1 °C 50.4 °F /  10.2 °C 29.70in /  1005.6hPa Calm     53% 0.00in /  0mm 0.0 W/m2
23:33 67.8 °F /  19.9 °C 50.0 °F /  10 °C 29.70in /  1005.6hPa Calm   1.0mph /  1.6km/h 53% 0.00in /  0mm 0.0 W/m2
23:38 67.6 °F /  19.8 °C 50.4 °F /  10.2 °C 29.70in /  1005.6hPa Calm     54% 0.00in /  0mm 0.0 W/m2
23:43 67.5 °F /  19.7 °C 50.2 °F /  10.1 °C 29.70in /  1005.6hPa Calm   1.0mph /  1.6km/h 54% 0.00in /  0mm 0.0 W/m2
23:48 67.1 °F /  19.5 °C 49.8 °F /  9.9 °C 29.69in /  1005.3hPa Calm     54% 0.00in /  0mm 0.0 W/m2
23:54 66.9 °F /  19.4 °C 50.2 °F /  10.1 °C 29.69in /  1005.3hPa Calm     55% 0.00in /  0mm 0.0 W/m2
23:59 66.6 °F /  19.2 °C 49.8 °F /  9.9 °C 29.68in /  1005hPa Calm     55% 0.00in /  0mm 0.0 W/m2
Olympia, Windhoek, Namibia
Compliments of Weather Underground - 3.25 mb